createdAt,value
2023-04-19T00:01:44.360Z,4.77
2023-04-19T00:04:11.743Z,4.82
2023-04-19T00:06:41.041Z,4.38
2023-04-19T00:09:09.177Z,4.10
2023-04-19T00:11:36.189Z,4.47
2023-04-19T00:14:03.241Z,4.80
2023-04-19T00:16:30.386Z,3.80
2023-04-19T00:18:57.408Z,4.17
2023-04-19T00:21:24.450Z,4.37
2023-04-19T00:23:54.043Z,3.93
2023-04-19T00:26:21.302Z,4.17
2023-04-19T00:28:48.295Z,4.30
2023-04-19T00:31:15.331Z,4.63
2023-04-19T00:33:42.353Z,4.23
2023-04-19T00:36:10.839Z,4.27
2023-04-19T00:38:37.850Z,4.60
2023-04-19T00:41:05.089Z,5.07
2023-04-19T00:43:32.068Z,5.83
2023-04-19T00:45:59.409Z,5.30
2023-04-19T00:48:26.551Z,5.67
2023-04-19T00:50:53.629Z,5.20
2023-04-19T00:53:20.669Z,4.50
2023-04-19T00:55:50.937Z,5.13
2023-04-19T00:58:18.255Z,5.57
2023-04-19T01:00:45.287Z,5.80
2023-04-19T01:03:13.678Z,5.50
2023-04-19T01:05:41.065Z,5.60
2023-04-19T01:08:08.466Z,5.17
2023-04-19T01:10:35.521Z,4.97
2023-04-19T01:13:02.685Z,4.60
2023-04-19T01:15:31.298Z,5.47
2023-04-19T01:17:58.327Z,5.27
2023-04-19T01:20:25.593Z,4.97
2023-04-19T01:22:52.684Z,5.10
2023-04-19T01:25:19.845Z,5.17
2023-04-19T01:27:46.994Z,5.70
2023-04-19T01:30:14.311Z,5.07
2023-04-19T01:32:41.351Z,5.00
2023-04-19T01:35:11.358Z,5.30
2023-04-19T01:37:38.523Z,5.67
2023-04-19T01:40:06.484Z,5.23
2023-04-19T01:42:33.499Z,5.20
2023-04-19T01:45:00.682Z,5.70
2023-04-19T01:47:27.741Z,5.97
2023-04-19T01:49:54.873Z,6.10
2023-04-19T01:52:21.873Z,5.40
2023-04-19T01:54:49.087Z,6.30
2023-04-19T01:57:16.700Z,5.30
2023-04-19T01:59:43.780Z,5.47
2023-04-19T02:02:10.993Z,5.60
2023-04-19T02:04:38.025Z,6.27
2023-04-19T02:07:05.022Z,6.23
2023-04-19T02:09:35.857Z,5.60
2023-04-19T02:12:03.298Z,5.60
2023-04-19T02:14:30.321Z,5.80
2023-04-19T02:16:57.717Z,5.57
2023-04-19T02:19:24.919Z,5.50
2023-04-19T02:21:53.700Z,6.63
2023-04-19T02:24:20.704Z,6.00
2023-04-19T02:26:47.744Z,6.30
2023-04-19T02:29:16.871Z,6.80
2023-04-19T02:31:46.450Z,5.50
2023-04-19T02:34:13.828Z,6.90
2023-04-19T02:36:41.070Z,5.77
2023-04-19T02:39:08.489Z,6.50
2023-04-19T02:41:35.667Z,6.23
2023-04-19T02:44:02.721Z,6.80
2023-04-19T02:46:29.836Z,5.80
2023-04-19T02:48:56.901Z,5.90
2023-04-19T02:51:23.964Z,6.83
2023-04-19T02:53:50.929Z,6.27
2023-04-19T02:56:17.908Z,7.90
2023-04-19T02:58:45.449Z,6.33
2023-04-19T03:01:12.511Z,6.27
2023-04-19T03:03:39.580Z,6.77
2023-04-19T03:06:06.929Z,7.07
2023-04-19T03:08:34.098Z,6.80
2023-04-19T03:11:01.033Z,6.10
2023-04-19T03:13:28.075Z,6.73
2023-04-19T03:15:55.111Z,6.80
2023-04-19T03:18:22.497Z,6.53
2023-04-19T03:20:49.496Z,6.60
2023-04-19T03:23:16.614Z,6.67
2023-04-19T03:25:43.690Z,6.77
2023-04-19T03:28:10.732Z,6.37
2023-04-19T03:30:37.712Z,6.20
2023-04-19T03:33:04.815Z,6.80
2023-04-19T03:35:32.548Z,6.57
2023-04-19T03:37:59.550Z,6.73
2023-04-19T03:40:26.528Z,6.87
2023-04-19T03:42:53.676Z,5.90
2023-04-19T03:45:20.765Z,6.07
2023-04-19T03:47:47.849Z,7.47
2023-04-19T03:50:14.910Z,6.27
2023-04-19T03:52:41.874Z,7.00
2023-04-19T03:55:10.060Z,6.80
2023-04-19T03:57:37.672Z,6.83
2023-04-19T04:00:09.041Z,6.50
2023-04-19T04:02:39.835Z,6.63
2023-04-19T04:05:07.909Z,6.67
2023-04-19T04:07:35.231Z,6.57
2023-04-19T04:10:02.234Z,6.53
2023-04-19T04:12:29.307Z,5.77
2023-04-19T04:14:56.326Z,5.97
2023-04-19T04:17:24.550Z,6.30
2023-04-19T04:19:51.602Z,6.30
2023-04-19T04:22:18.640Z,6.60
2023-04-19T04:24:45.619Z,5.87
2023-04-19T04:27:12.863Z,6.53
2023-04-19T04:29:41.308Z,5.97
2023-04-19T04:32:10.597Z,6.10
2023-04-19T04:34:38.639Z,6.23
2023-04-19T04:37:05.836Z,6.20
2023-04-19T04:39:35.167Z,6.57
2023-04-19T04:42:02.520Z,7.40
2023-04-19T04:44:29.552Z,7.60
2023-04-19T04:46:56.551Z,6.43
2023-04-19T04:49:23.565Z,6.50
2023-04-19T04:51:51.392Z,6.17
2023-04-19T04:54:18.386Z,6.40
2023-04-19T04:56:45.511Z,6.80
2023-04-19T04:59:12.521Z,6.30
2023-04-19T05:01:39.531Z,6.43
2023-04-19T05:04:06.656Z,6.50
2023-04-19T05:06:33.705Z,6.10
2023-04-19T05:09:00.814Z,6.77
2023-04-19T05:11:28.017Z,6.37
2023-04-19T05:13:54.991Z,7.07
2023-04-19T05:16:22.319Z,6.17
2023-04-19T05:18:49.471Z,6.63
2023-04-19T05:21:16.438Z,7.17
2023-04-19T05:23:43.486Z,7.27
2023-04-19T05:26:15.390Z,8.10
2023-04-19T05:28:43.721Z,9.47
2023-04-19T05:31:11.171Z,9.43
2023-04-19T05:33:38.489Z,10.00
2023-04-19T05:36:05.760Z,8.70
2023-04-19T05:38:32.747Z,8.30
2023-04-19T05:41:00.406Z,10.60
2023-04-19T05:43:27.445Z,11.67
2023-04-19T05:45:54.461Z,10.57
2023-04-19T05:48:21.502Z,9.97
2023-04-19T05:50:48.499Z,9.97
2023-04-19T05:53:15.625Z,10.83
2023-04-19T05:55:42.881Z,10.77
2023-04-19T05:58:09.890Z,9.73
2023-04-19T06:00:38.117Z,10.83
2023-04-19T06:03:05.460Z,10.87
2023-04-19T06:05:32.904Z,9.67
2023-04-19T06:08:02.861Z,8.73
2023-04-19T06:10:40.478Z,8.50
2023-04-19T06:13:17.514Z,7.67
2023-04-19T06:15:44.571Z,7.57
2023-04-19T06:18:19.583Z,7.10
2023-04-19T06:20:47.377Z,7.60
2023-04-19T06:23:15.198Z,7.70
2023-04-19T06:25:42.722Z,9.23
2023-04-19T06:28:09.786Z,10.23
2023-04-19T06:30:37.049Z,10.00
2023-04-19T06:33:04.156Z,9.20
2023-04-19T06:35:32.339Z,9.63
2023-04-19T06:37:59.932Z,8.80
2023-04-19T06:40:29.056Z,9.33
2023-04-19T06:42:56.205Z,9.63
2023-04-19T06:45:23.372Z,10.70
2023-04-19T06:47:50.373Z,10.23
2023-04-19T06:50:17.549Z,10.87
2023-04-19T06:52:44.553Z,10.87
2023-04-19T06:55:11.727Z,10.20
2023-04-19T06:57:38.712Z,10.00
2023-04-19T07:00:06.832Z,9.43
2023-04-19T07:02:34.138Z,9.77
2023-04-19T07:05:01.496Z,8.60
2023-04-19T07:07:28.496Z,8.67
2023-04-19T07:09:55.681Z,7.67
2023-04-19T07:12:22.736Z,8.17
2023-04-19T07:14:49.772Z,8.60
2023-04-19T07:17:18.269Z,8.10
2023-04-19T07:19:48.947Z,8.93
2023-04-19T07:22:16.098Z,8.50
2023-04-19T07:24:44.649Z,9.67
2023-04-19T07:27:12.164Z,8.53
2023-04-19T07:29:41.301Z,8.53
2023-04-19T07:32:08.641Z,8.77
2023-04-19T07:34:38.387Z,8.73
2023-04-19T07:37:05.375Z,7.88
2023-04-19T07:39:32.577Z,8.77
2023-04-19T07:42:00.861Z,8.23
2023-04-19T07:44:28.061Z,8.10
2023-04-19T07:46:55.175Z,9.23
2023-04-19T07:49:22.239Z,8.83
2023-04-19T07:51:49.594Z,9.17
2023-04-19T07:54:18.192Z,8.33
2023-04-19T07:56:45.895Z,8.43
2023-04-19T07:59:12.907Z,8.83
2023-04-19T08:01:40.019Z,8.53
2023-04-19T08:04:08.118Z,8.17
2023-04-19T08:06:39.575Z,7.80
2023-04-19T08:09:06.890Z,7.97
2023-04-19T08:11:33.966Z,8.50
2023-04-19T08:16:59.231Z,8.00
2023-04-19T08:19:18.002Z,8.43
2023-04-19T08:21:45.084Z,7.63
2023-04-19T08:24:12.052Z,7.33
2023-04-19T08:26:39.368Z,8.00
2023-04-19T08:29:06.412Z,7.27
2023-04-19T08:31:33.517Z,7.83
2023-04-19T08:34:00.717Z,7.97
2023-04-19T08:36:37.701Z,7.60
2023-04-19T08:39:17.717Z,7.70
2023-04-19T08:42:04.854Z,8.40
2023-04-19T08:44:37.632Z,8.10
2023-04-19T08:47:11.508Z,8.37
2023-04-19T08:49:42.746Z,7.30
2023-04-19T08:52:13.856Z,6.77
2023-04-19T08:54:42.572Z,7.27
2023-04-19T08:57:09.974Z,6.85
2023-04-19T08:59:37.172Z,7.27
2023-04-19T09:02:04.539Z,7.10
2023-04-19T09:04:36.769Z,7.77
2023-04-19T09:07:04.783Z,8.27
2023-04-19T09:12:02.325Z,7.33
2023-04-19T09:14:29.942Z,7.17
2023-04-19T09:17:17.365Z,7.23
2023-04-19T09:19:50.028Z,7.50
2023-04-19T09:22:18.174Z,7.40
2023-04-19T09:27:36.594Z,7.10
2023-04-19T09:30:06.756Z,7.23
2023-04-19T09:32:49.456Z,8.27
2023-04-19T09:35:16.843Z,7.93
2023-04-19T09:38:05.710Z,7.20
2023-04-19T09:40:33.650Z,7.57
2023-04-19T09:43:15.086Z,6.87
2023-04-19T09:45:48.915Z,7.43
2023-04-19T09:48:15.944Z,7.20
2023-04-19T09:51:01.939Z,7.70
2023-04-19T09:53:35.665Z,7.10
2023-04-19T09:56:04.277Z,6.90
2023-04-19T09:58:42.490Z,7.53
2023-04-19T10:01:18.621Z,8.20
2023-04-19T10:03:50.691Z,8.23
2023-04-19T10:08:53.581Z,7.73
2023-04-19T10:11:22.868Z,8.38
2023-04-19T10:13:56.191Z,7.85
2023-04-19T10:16:23.534Z,6.80
2023-04-19T10:18:52.372Z,7.22
2023-04-19T10:21:20.816Z,7.20
2023-04-19T10:23:48.634Z,7.22
2023-04-19T10:26:16.098Z,7.25
2023-04-19T10:28:43.182Z,7.63
2023-04-19T10:31:13.870Z,6.97
2023-04-19T10:33:42.032Z,7.37
2023-04-19T10:36:14.248Z,8.00
2023-04-19T10:38:49.772Z,7.87
2023-04-19T10:41:19.388Z,7.07
2023-04-19T10:43:46.400Z,7.80
2023-04-19T10:46:20.984Z,8.17
2023-04-19T10:48:54.678Z,7.97
2023-04-19T10:51:47.532Z,7.10
2023-04-19T10:54:34.367Z,8.10
2023-04-19T10:57:08.204Z,7.43
2023-04-19T10:59:40.697Z,7.30
2023-04-19T11:02:28.820Z,7.13
2023-04-19T11:04:55.954Z,6.73
2023-04-19T11:07:24.885Z,6.93
2023-04-19T11:09:52.771Z,7.23
2023-04-19T11:12:21.825Z,6.93
2023-04-19T11:14:53.585Z,6.90
2023-04-19T11:17:31.174Z,7.13
2023-04-19T11:20:01.641Z,7.27
2023-04-19T11:22:39.568Z,6.90
2023-04-19T11:25:13.928Z,6.93
2023-04-19T11:27:43.134Z,6.85
2023-04-19T11:30:13.398Z,7.63
2023-04-19T11:32:54.980Z,7.63
2023-04-19T11:35:24.627Z,7.68
2023-04-19T11:37:52.798Z,7.28
2023-04-19T11:40:21.997Z,6.43
2023-04-19T11:43:02.268Z,6.45
2023-04-19T11:45:39.716Z,6.93
2023-04-19T11:48:17.159Z,6.35
2023-04-19T11:50:45.878Z,6.75
2023-04-19T11:53:24.353Z,7.00
2023-04-19T11:55:57.661Z,7.00
2023-04-19T11:58:51.488Z,6.38
2023-04-19T12:01:22.191Z,5.82
2023-04-19T12:03:52.294Z,6.90
2023-04-19T12:06:24.622Z,7.38
2023-04-19T12:08:54.009Z,6.40
2023-04-19T12:11:26.872Z,6.20
2023-04-19T12:14:13.565Z,6.00
2023-04-19T12:16:41.040Z,6.15
2023-04-19T12:19:17.740Z,6.07
2023-04-19T12:21:46.562Z,5.75
2023-04-19T12:24:16.839Z,6.15
2023-04-19T12:26:56.329Z,5.82
2023-04-19T12:29:23.619Z,6.18
2023-04-19T12:31:51.144Z,6.45
2023-04-19T12:34:18.278Z,5.88
2023-04-19T12:36:45.494Z,6.15
2023-04-19T12:39:12.803Z,6.00
2023-04-19T12:41:39.797Z,6.32
2023-04-19T12:44:06.759Z,6.20
2023-04-19T12:46:33.879Z,5.75
2023-04-19T12:49:00.878Z,6.07
2023-04-19T12:51:28.027Z,5.50
2023-04-19T12:53:55.023Z,5.57
2023-04-19T12:56:22.107Z,5.95
2023-04-19T12:58:49.227Z,5.75
2023-04-19T13:01:16.302Z,5.93
2023-04-19T13:03:43.620Z,5.43
2023-04-19T13:06:14.778Z,5.43
2023-04-19T13:08:46.553Z,5.65
2023-04-19T13:11:16.060Z,5.40
2023-04-19T13:13:43.163Z,4.75
2023-04-19T13:16:11.091Z,5.50
2023-04-19T13:18:38.218Z,5.28
2023-04-19T13:21:07.415Z,6.30
2023-04-19T13:23:35.309Z,4.82
2023-04-19T13:26:02.307Z,4.75
2023-04-19T13:28:30.370Z,5.68
2023-04-19T13:30:57.539Z,4.95
2023-04-19T13:33:25.885Z,5.22
2023-04-19T13:35:52.869Z,5.55
2023-04-19T13:38:19.909Z,6.00
2023-04-19T13:40:46.893Z,5.47
2023-04-19T13:43:13.863Z,4.97
2023-04-19T13:45:40.818Z,4.90
2023-04-19T13:48:07.875Z,5.20
2023-04-19T13:50:35.034Z,5.07
2023-04-19T13:53:02.111Z,4.65
2023-04-19T13:55:29.124Z,4.97
2023-04-19T13:57:56.068Z,4.60
2023-04-19T14:00:23.268Z,5.50
2023-04-19T14:02:52.222Z,5.20
2023-04-19T14:05:19.713Z,5.25
2023-04-19T14:07:46.994Z,5.93
2023-04-19T14:10:14.034Z,4.90
2023-04-19T14:12:41.453Z,5.22
2023-04-19T14:15:09.011Z,5.15
2023-04-19T14:17:36.138Z,5.57
2023-04-19T14:20:06.372Z,5.60
2023-04-19T14:22:35.303Z,5.68
2023-04-19T14:25:04.165Z,5.38
2023-04-19T14:27:31.175Z,5.00
2023-04-19T14:29:58.428Z,5.63
2023-04-19T14:32:27.016Z,6.00
2023-04-19T14:34:56.246Z,4.80
2023-04-19T14:37:24.643Z,5.35
2023-04-19T14:39:52.196Z,5.93
2023-04-19T14:42:22.256Z,5.47
2023-04-19T14:44:52.215Z,5.20
2023-04-19T14:47:19.706Z,5.53
2023-04-19T14:49:46.938Z,6.03
2023-04-19T14:52:13.908Z,5.28
2023-04-19T14:54:40.981Z,5.22
2023-04-19T14:57:08.006Z,4.80
2023-04-19T14:59:35.088Z,5.25
2023-04-19T15:02:02.213Z,5.75
2023-04-19T15:04:29.330Z,5.40
2023-04-19T15:06:56.456Z,5.65
2023-04-19T15:09:23.489Z,4.97
2023-04-19T15:11:50.574Z,6.18
2023-04-19T15:14:17.541Z,5.68
2023-04-19T15:16:44.571Z,6.10
2023-04-19T15:19:11.583Z,5.63
2023-04-19T15:21:38.600Z,5.32
2023-04-19T15:24:07.573Z,6.07
2023-04-19T15:26:35.797Z,6.07
2023-04-19T15:29:02.888Z,5.72
2023-04-19T15:31:32.221Z,4.32
2023-04-19T15:34:02.894Z,4.43
2023-04-19T15:36:30.222Z,4.93
2023-04-19T15:38:58.591Z,4.18
2023-04-19T15:41:25.818Z,3.78
2023-04-19T15:43:53.047Z,3.88
2023-04-19T15:46:20.225Z,4.00
2023-04-19T15:48:48.417Z,3.45
2023-04-19T15:51:16.137Z,4.80
2023-04-19T15:53:43.316Z,3.80
2023-04-19T15:56:10.993Z,3.78
2023-04-19T15:58:38.194Z,3.97
2023-04-19T16:01:12.109Z,3.50
2023-04-19T16:03:39.763Z,3.33
2023-04-19T16:06:07.062Z,3.40
2023-04-19T16:08:34.306Z,3.78
2023-04-19T16:11:01.437Z,3.45
2023-04-19T16:13:30.759Z,3.90
2023-04-19T16:15:58.521Z,3.80
2023-04-19T16:18:25.571Z,4.05
2023-04-19T16:20:54.468Z,4.38
2023-04-19T16:23:24.018Z,4.07
2023-04-19T16:25:51.549Z,4.50
2023-04-19T16:28:19.879Z,3.83
2023-04-19T16:30:47.575Z,3.67
2023-04-19T16:33:15.824Z,3.42
2023-04-19T16:35:42.971Z,3.33
2023-04-19T16:38:10.114Z,4.13
2023-04-19T16:40:37.242Z,4.05
2023-04-19T16:43:06.312Z,4.20
2023-04-19T16:45:33.468Z,4.82
2023-04-19T16:48:00.620Z,4.55
2023-04-19T16:50:27.764Z,4.32
2023-04-19T16:52:54.776Z,5.30
2023-04-19T16:55:22.101Z,4.85
2023-04-19T16:57:51.009Z,5.43
2023-04-19T17:00:18.444Z,4.78
2023-04-19T17:02:45.834Z,5.18
2023-04-19T17:05:14.377Z,4.97
2023-04-19T17:07:42.146Z,4.78
2023-04-19T17:10:09.817Z,5.32
2023-04-19T17:12:36.845Z,5.40
2023-04-19T17:15:04.516Z,5.43
2023-04-19T17:17:31.611Z,5.40
2023-04-19T17:19:58.704Z,5.20
2023-04-19T17:22:25.770Z,5.70
2023-04-19T17:24:54.240Z,5.13
2023-04-19T17:27:21.269Z,5.82
2023-04-19T17:29:48.346Z,5.65
2023-04-19T17:32:15.584Z,6.22
2023-04-19T17:34:42.582Z,6.25
2023-04-19T17:37:09.577Z,6.35
2023-04-19T17:39:36.568Z,6.13
2023-04-19T17:42:03.632Z,5.85
2023-04-19T17:44:30.849Z,7.07
2023-04-19T17:46:58.112Z,5.85
2023-04-19T17:49:27.081Z,6.13
2023-04-19T17:51:56.212Z,7.30
2023-04-19T17:54:23.333Z,5.75
2023-04-19T17:56:52.513Z,6.10
2023-04-19T17:59:19.557Z,6.60
2023-04-19T18:01:46.726Z,7.25
2023-04-19T18:04:17.848Z,6.63
2023-04-19T18:06:45.949Z,7.65
2023-04-19T18:09:13.695Z,7.00
2023-04-19T18:11:41.310Z,6.75
2023-04-19T18:14:08.414Z,7.97
2023-04-19T18:16:35.622Z,7.88
2023-04-19T18:19:02.765Z,8.20
2023-04-19T18:21:29.775Z,9.10
2023-04-19T18:23:56.821Z,8.48
2023-04-19T18:26:23.870Z,8.57
2023-04-19T18:28:50.911Z,8.73
2023-04-19T18:31:17.997Z,8.77
2023-04-19T18:33:44.975Z,9.48
2023-04-19T18:36:12.002Z,10.00
2023-04-19T18:38:39.040Z,9.67
2023-04-19T18:41:06.141Z,8.77
2023-04-19T18:43:33.141Z,9.73
2023-04-19T18:46:01.435Z,9.97
2023-04-19T18:48:29.938Z,10.32
2023-04-19T18:50:57.707Z,11.40
2023-04-19T18:53:29.375Z,11.17
2023-04-19T18:56:00.354Z,10.47
2023-04-19T18:58:29.336Z,10.17
2023-04-19T19:00:57.093Z,9.73
2023-04-19T19:05:55.506Z,10.70
2023-04-19T19:08:22.770Z,10.30
2023-04-19T19:11:14.057Z,11.60
2023-04-19T19:13:36.839Z,11.03
2023-04-19T19:16:05.761Z,11.60
2023-04-19T19:18:32.969Z,12.73
2023-04-19T19:21:03.290Z,12.37
2023-04-19T19:26:01.182Z,13.00
2023-04-19T19:28:28.189Z,11.93
2023-04-19T19:30:55.227Z,11.60
2023-04-19T19:33:22.456Z,11.13
2023-04-19T19:35:49.489Z,12.43
2023-04-19T19:38:16.773Z,10.93
2023-04-19T19:41:11.109Z,10.80
2023-04-19T19:43:30.974Z,10.40
2023-04-19T19:45:58.093Z,9.90
2023-04-19T19:48:25.657Z,9.30
2023-04-19T19:53:22.655Z,9.80
2023-04-19T19:55:50.098Z,8.63
2023-04-19T19:58:42.766Z,8.40
2023-04-19T20:01:04.800Z,8.80
2023-04-19T20:03:37.332Z,7.67
2023-04-19T20:08:41.217Z,8.55
2023-04-19T20:11:11.080Z,7.77
2023-04-19T20:13:38.123Z,7.05
2023-04-19T20:16:06.497Z,7.10
2023-04-19T20:18:34.986Z,7.22
2023-04-19T20:21:02.125Z,8.25
2023-04-19T20:23:29.140Z,7.68
2023-04-19T20:25:56.140Z,7.80
2023-04-19T20:28:23.221Z,7.40
2023-04-19T20:30:50.583Z,7.80
2023-04-19T20:33:17.649Z,7.18
2023-04-19T20:35:44.661Z,7.32
2023-04-19T20:38:12.807Z,7.18
2023-04-19T20:40:39.901Z,7.15
2023-04-19T20:43:08.233Z,7.80
2023-04-19T20:45:35.486Z,7.47
2023-04-19T20:48:03.189Z,7.85
2023-04-19T20:50:30.299Z,7.47
2023-04-19T20:52:58.194Z,8.27
2023-04-19T20:55:25.437Z,9.35
2023-04-19T20:57:52.495Z,8.43
2023-04-19T21:00:20.706Z,8.35
2023-04-19T21:02:49.757Z,8.07
2023-04-19T21:05:17.330Z,8.60
2023-04-19T21:07:44.524Z,8.15
2023-04-19T21:10:11.834Z,8.80
2023-04-19T21:12:38.938Z,8.88
2023-04-19T21:15:07.063Z,8.40
2023-04-19T21:17:34.161Z,8.65
2023-04-19T21:20:03.015Z,8.93
2023-04-19T21:22:30.306Z,8.35
2023-04-19T21:24:57.347Z,8.35
2023-04-19T21:27:24.439Z,7.68
2023-04-19T21:29:51.406Z,8.48
2023-04-19T21:32:18.576Z,9.27
2023-04-19T21:34:46.067Z,9.57
2023-04-19T21:37:13.110Z,8.65
2023-04-19T21:39:40.123Z,9.23
2023-04-19T21:42:07.129Z,9.18
2023-04-19T21:44:35.032Z,8.88
2023-04-19T21:47:02.288Z,9.35
2023-04-19T21:49:29.355Z,8.50
2023-04-19T21:51:56.974Z,9.15
2023-04-19T21:54:33.216Z,9.73
2023-04-19T21:57:01.620Z,9.13
2023-04-19T21:59:30.709Z,8.73
2023-04-19T22:01:59.101Z,10.00
2023-04-19T22:04:26.458Z,10.30
2023-04-19T22:06:53.966Z,10.03
2023-04-19T22:09:21.039Z,9.77
2023-04-19T22:11:50.280Z,9.68
2023-04-19T22:14:17.813Z,10.05
2023-04-19T22:16:44.970Z,10.45
2023-04-19T22:19:12.012Z,10.02
2023-04-19T22:21:39.119Z,9.27
2023-04-19T22:24:06.874Z,9.82
2023-04-19T22:26:34.477Z,10.23
2023-04-19T22:29:01.655Z,9.98
2023-04-19T22:31:28.700Z,10.55
2023-04-19T22:33:55.773Z,10.25
2023-04-19T22:36:22.868Z,10.75
2023-04-19T22:38:50.069Z,10.10
2023-04-19T22:41:17.489Z,10.20
2023-04-19T22:43:44.518Z,10.05
2023-04-19T22:46:12.926Z,10.15
2023-04-19T22:48:39.970Z,9.40
2023-04-19T22:51:07.480Z,9.68
2023-04-19T22:53:34.514Z,9.38
2023-04-19T22:56:01.544Z,9.40
2023-04-19T22:58:28.623Z,9.88
2023-04-19T23:00:55.865Z,9.45
2023-04-19T23:03:22.896Z,9.40
2023-04-19T23:05:49.950Z,10.07
2023-04-19T23:08:16.947Z,9.07
2023-04-19T23:10:45.319Z,9.00
2023-04-19T23:13:15.813Z,9.55
2023-04-19T23:15:43.485Z,9.30
2023-04-19T23:18:11.673Z,8.67
2023-04-19T23:20:38.684Z,9.10
2023-04-19T23:23:06.011Z,9.30
2023-04-19T23:25:33.245Z,8.85
2023-04-19T23:28:00.313Z,8.48
2023-04-19T23:30:27.693Z,8.17
2023-04-19T23:32:54.696Z,8.43
2023-04-19T23:35:22.286Z,8.52
2023-04-19T23:37:49.519Z,8.20
2023-04-19T23:40:16.555Z,8.27
2023-04-19T23:42:43.571Z,8.73
2023-04-19T23:45:11.551Z,8.33
2023-04-19T23:47:38.604Z,8.07
2023-04-19T23:50:06.381Z,8.70
2023-04-19T23:52:33.434Z,7.50
2023-04-19T23:55:00.554Z,7.93
2023-04-19T23:57:27.671Z,8.23
2023-04-19T23:59:54.715Z,8.83
